createdAt,value
2023-12-02T00:00:03.132Z,31.83
2023-12-02T00:06:57.726Z,34.95
2023-12-02T00:13:40.079Z,33.83
2023-12-02T00:20:22.366Z,28.88
2023-12-02T00:27:05.553Z,34.55
2023-12-02T00:33:48.789Z,28.88
2023-12-02T00:40:31.213Z,28.17
2023-12-02T00:47:13.850Z,26.15
2023-12-02T00:53:59.219Z,30.17
2023-12-02T01:07:23.746Z,25.73
2023-12-02T01:14:06.139Z,29.90
2023-12-02T01:20:48.514Z,28.77
2023-12-02T01:27:31.169Z,26.13
2023-12-02T01:34:13.571Z,26.30
2023-12-02T01:40:58.878Z,24.52
2023-12-02T01:47:43.612Z,22.23
2023-12-02T01:54:26.169Z,24.33
2023-12-02T02:01:08.544Z,24.70
2023-12-02T02:07:50.989Z,21.42
2023-12-02T02:14:33.277Z,24.50
2023-12-02T02:21:22.030Z,22.95
2023-12-02T02:28:04.706Z,22.65
2023-12-02T02:34:47.594Z,41.92
2023-12-02T02:41:30.005Z,42.92
2023-12-02T02:48:12.463Z,42.58
2023-12-02T02:54:54.837Z,42.22
2023-12-02T03:01:40.166Z,45.80
2023-12-02T03:08:22.536Z,35.65
2023-12-02T03:15:05.659Z,41.38
2023-12-02T03:21:47.981Z,40.47
2023-12-02T03:28:30.630Z,35.72
2023-12-02T03:35:12.969Z,29.50
2023-12-02T03:41:56.552Z,28.10
2023-12-02T03:48:41.478Z,24.45
2023-12-02T03:55:23.807Z,22.45
2023-12-02T04:02:09.122Z,21.40
2023-12-02T04:08:51.853Z,25.92
2023-12-02T04:15:34.160Z,21.88
2023-12-02T04:22:20.387Z,21.92
2023-12-02T04:29:02.867Z,20.88
2023-12-02T04:35:47.574Z,20.52
2023-12-02T04:42:29.877Z,23.97
2023-12-02T04:49:16.059Z,17.73
2023-12-02T04:55:58.460Z,20.10
2023-12-02T05:02:43.306Z,20.27
2023-12-02T05:09:25.701Z,19.73
2023-12-02T05:16:08.732Z,18.98
2023-12-02T05:22:51.318Z,22.20
2023-12-02T05:29:34.116Z,19.17
2023-12-02T05:36:16.466Z,17.75
2023-12-02T05:42:59.039Z,21.30
2023-12-02T05:49:43.335Z,19.58
2023-12-02T05:56:25.640Z,19.70
2023-12-02T06:03:08.014Z,21.77
2023-12-02T06:09:50.312Z,21.45
2023-12-02T06:16:32.838Z,20.50
2023-12-02T06:23:15.112Z,17.08
2023-12-02T06:29:57.624Z,15.48
2023-12-02T06:36:39.974Z,15.30
2023-12-02T06:43:22.382Z,15.18
2023-12-02T06:50:05.556Z,18.35
2023-12-02T06:56:48.700Z,16.10
2023-12-02T07:03:32.617Z,18.57
2023-12-02T07:10:17.635Z,15.18
2023-12-02T07:16:59.914Z,17.58
2023-12-02T07:23:42.304Z,14.77
2023-12-02T07:37:10.078Z,31.15
2023-12-02T07:43:52.910Z,18.63
2023-12-02T07:50:35.274Z,33.80
2023-12-02T07:57:17.618Z,33.67
2023-12-02T08:04:00.420Z,33.30
2023-12-02T08:10:42.866Z,51.42
2023-12-02T08:17:25.254Z,30.27
2023-12-02T08:24:08.015Z,18.48
2023-12-02T08:30:50.605Z,14.10
2023-12-02T08:37:32.917Z,14.20
2023-12-02T08:44:16.927Z,13.23
2023-12-02T08:51:00.357Z,14.23
2023-12-02T08:57:42.687Z,15.68
2023-12-02T09:04:25.190Z,19.42
2023-12-02T09:11:07.831Z,17.17
2023-12-02T09:17:56.084Z,19.52
2023-12-02T09:24:41.695Z,17.95
2023-12-02T09:31:25.310Z,18.60
2023-12-02T09:38:07.799Z,21.15
2023-12-02T09:44:59.668Z,22.95
2023-12-02T09:52:35.037Z,20.45
2023-12-02T09:59:37.079Z,18.92
2023-12-02T10:06:22.093Z,23.00
2023-12-02T10:13:29.748Z,26.80
2023-12-02T10:20:14.136Z,21.27
2023-12-02T10:27:05.254Z,19.40
2023-12-02T10:34:48.305Z,20.83
2023-12-02T10:42:05.695Z,17.98
2023-12-02T10:48:48.225Z,22.27
2023-12-02T10:55:33.474Z,21.60
2023-12-02T11:02:32.341Z,22.83
2023-12-02T11:09:44.907Z,22.98
2023-12-02T11:16:42.975Z,25.55
2023-12-02T11:23:45.992Z,49.83
2023-12-02T11:31:07.126Z,40.85
2023-12-02T11:38:18.546Z,59.60
2023-12-02T11:45:21.384Z,130.32
2023-12-02T11:52:28.055Z,58.45
2023-12-02T11:59:17.578Z,51.80
2023-12-02T12:06:14.738Z,57.20
2023-12-02T12:13:00.411Z,53.47
2023-12-02T12:19:42.751Z,44.53
2023-12-02T12:26:25.577Z,41.20
2023-12-02T12:33:14.303Z,45.90
2023-12-02T12:39:56.838Z,30.23
2023-12-02T12:46:43.596Z,30.23
2023-12-02T12:53:31.237Z,29.83
2023-12-02T13:00:17.547Z,32.97
2023-12-02T13:07:11.921Z,35.05
2023-12-02T13:14:04.380Z,35.00
2023-12-02T13:20:48.942Z,32.35
2023-12-02T13:27:57.163Z,29.48
2023-12-02T13:35:15.629Z,47.17
2023-12-02T13:42:06.300Z,97.95
2023-12-02T13:49:10.861Z,71.35
2023-12-02T13:56:13.303Z,83.43
2023-12-02T14:03:36.994Z,68.90
2023-12-02T14:10:24.177Z,57.83
2023-12-02T14:17:39.583Z,48.45
2023-12-02T14:24:55.673Z,56.72
2023-12-02T14:32:12.640Z,52.42
2023-12-02T14:39:09.995Z,56.85
2023-12-02T14:45:57.417Z,43.88
2023-12-02T14:52:45.420Z,42.60
2023-12-02T14:59:29.163Z,60.92
2023-12-02T15:06:12.750Z,43.45
2023-12-02T15:12:56.531Z,50.85
2023-12-02T15:19:45.670Z,181.18
2023-12-02T15:26:28.053Z,270.58
2023-12-02T15:33:18.139Z,93.30
2023-12-02T15:40:00.529Z,85.75
2023-12-02T15:46:46.217Z,195.75
2023-12-02T15:53:29.061Z,216.63
2023-12-02T16:00:13.356Z,113.57
2023-12-02T16:06:56.543Z,82.72
2023-12-02T16:13:41.987Z,65.78
2023-12-02T16:20:24.719Z,55.70
2023-12-02T16:27:07.292Z,53.83
2023-12-02T16:33:49.708Z,49.90
2023-12-02T16:40:32.000Z,49.83
2023-12-02T16:47:31.663Z,51.35
2023-12-02T16:54:15.273Z,96.38
2023-12-02T17:01:03.479Z,184.60
2023-12-02T17:07:45.926Z,173.27
2023-12-02T17:14:31.821Z,166.82
2023-12-02T17:21:46.377Z,124.13
2023-12-02T17:28:28.776Z,113.93
2023-12-02T17:35:11.115Z,107.43
2023-12-02T17:41:53.601Z,116.40
2023-12-02T17:48:35.960Z,114.15
2023-12-02T17:55:18.722Z,117.18
2023-12-02T18:02:01.091Z,97.45
2023-12-02T18:08:43.984Z,86.65
2023-12-02T18:15:26.559Z,85.30
2023-12-02T18:22:16.023Z,77.97
2023-12-02T18:28:58.337Z,72.28
2023-12-02T18:35:40.950Z,84.57
2023-12-02T18:42:23.317Z,110.57
2023-12-02T18:49:08.330Z,199.40
2023-12-02T18:55:50.750Z,267.63
2023-12-02T19:02:33.850Z,158.15
2023-12-02T19:09:16.565Z,159.50
2023-12-02T19:16:00.218Z,154.57
2023-12-02T19:22:42.517Z,184.80
2023-12-02T19:29:27.297Z,153.65
2023-12-02T19:36:10.315Z,98.37
2023-12-02T19:42:52.585Z,128.95
2023-12-02T19:49:35.074Z,134.60
2023-12-02T19:56:17.445Z,137.45
2023-12-02T20:03:01.317Z,150.82
2023-12-02T20:09:44.423Z,152.23
2023-12-02T20:16:27.408Z,155.88
2023-12-02T20:30:22.068Z,217.35
2023-12-02T20:43:52.059Z,129.93
2023-12-02T20:50:37.124Z,228.93
2023-12-02T20:57:19.589Z,140.02
2023-12-02T21:04:04.472Z,146.30
2023-12-02T21:10:47.085Z,98.55
2023-12-02T21:17:29.588Z,109.07
2023-12-02T21:24:13.074Z,97.47
2023-12-02T21:30:59.298Z,104.97
2023-12-02T21:37:41.750Z,102.70
2023-12-02T21:44:24.301Z,107.75
2023-12-02T21:51:28.701Z,164.70
2023-12-02T21:58:11.982Z,132.13
2023-12-02T22:04:54.665Z,132.70
2023-12-02T22:11:42.213Z,158.05
2023-12-02T22:18:24.871Z,135.18
2023-12-02T22:25:07.198Z,127.03
2023-12-02T22:31:49.544Z,118.68
2023-12-02T22:38:38.844Z,109.50
2023-12-02T22:45:24.004Z,113.32
2023-12-02T22:52:06.481Z,111.00
2023-12-02T22:58:50.233Z,111.43
2023-12-02T23:05:33.726Z,104.20
2023-12-02T23:12:37.829Z,101.55
2023-12-02T23:19:45.570Z,97.43
2023-12-02T23:26:29.037Z,90.70
2023-12-02T23:33:16.646Z,98.90
2023-12-02T23:39:59.483Z,93.28
2023-12-02T23:46:41.800Z,104.45
2023-12-02T23:53:24.783Z,101.93
